Mary Rose Brusco — WDE2412 — position and weather

sailwx.info

Track history (hours):
 
Tides and Currents Weather Stations Pressure Air Temp Water Temp Dewpoint Dewpoint Depression Visibility Wind Speed Wind Dir Waves Ship Positions

Mary Rose Brusco

Owner: Brusco Tug & Barge, Inc., Longview, WA. More information available from US FCC via Universal Licensing System and Coast Guard Vessel Documentation Center.

Last reported at 2015-Sep-01 17:17 UTC. Time now 2015-Sep-01 18:12 UTC.
Position N 47°59' W 122°13'.

Length 20 m; draft 3 m.

Type: Towing. MMSI: 367324840.

Date/timePositionNaut miles runAvg speedWind from/ knotsBaromVisibWave heightAir tempDewpointWater temp
2015-Sep-01 17:17N 47°59' W 122°13'0 0.0
2015-Sep-01 16:27N 47°59' W 122°13'0 0.0
2015-Sep-01 15:27N 47°59' W 122°13'0 0.1
2015-Sep-01 14:33N 47°59' W 122°13'2 2.0
2015-Sep-01 13:33N 47°58' W 122°16'2 0.1
2015-Aug-31 23:18N 47°59' W 122°13'6 8.0
2015-Aug-31 22:31N 48°02' W 122°21'2 0.3
2015-Aug-31 16:33N 48°03' W 122°24'6 8.7
2015-Aug-31 15:55N 47°59' W 122°18'3 8.3
2015-Aug-31 15:33N 47°59' W 122°13'1 0.6
2015-Aug-31 14:34N 47°59' W 122°14'0 0.3
2015-Aug-31 13:32N 47°58' W 122°14'  
2015-Aug-27 14:33N 47°59' W 122°14'0 0.3
2015-Aug-27 13:33N 47°59' W 122°13'0 0.0
2015-Aug-26 14:33N 47°59' W 122°13'1 0.7
2015-Aug-26 13:33N 47°59' W 122°15'1 0.2
2015-Aug-26 08:24N 47°59' W 122°13'0 0.2
2015-Aug-26 07:33N 47°59' W 122°13'2 0.1
2015-Aug-25 14:33N 47°58' W 122°16'2 1.6
2015-Aug-25 13:33N 47°59' W 122°13'0 0.2
2015-Aug-25 12:09N 47°59' W 122°13'0 0.0
2015-Aug-25 10:08N 47°59' W 122°13'0 0.0
2015-Aug-25 07:05N 47°59' W 122°13'0 0.0
2015-Aug-25 05:18N 47°59' W 122°13'0 0.0
2015-Aug-25 03:23N 47°59' W 122°13'0 0.0
2015-Aug-25 02:23N 47°59' W 122°13'0 0.0
2015-Aug-25 01:28N 47°59' W 122°13'0 0.0
2015-Aug-25 00:29N 47°59' W 122°13'0 0.0
2015-Aug-24 22:26N 47°59' W 122°13'0 0.0
2015-Aug-24 21:03N 47°59' W 122°13'0 0.0
2015-Aug-24 20:24N 47°59' W 122°13'0 0.0
2015-Aug-24 14:33N 47°59' W 122°13'1 1.4
2015-Aug-24 13:33N 47°58' W 122°15'1 0.0
2015-Aug-23 14:33N 47°59' W 122°14'0 0.3
2015-Aug-23 13:34N 47°59' W 122°14'  
Track history (hours):
 
Tides and Currents Weather Stations Pressure Air Temp Water Temp Dewpoint Dewpoint Depression Visibility Wind Speed Wind Dir Waves Ship Positions

Mary Rose Brusco

Owner: Brusco Tug & Barge, Inc., Longview, WA. More information available from US FCC via Universal Licensing System and Coast Guard Vessel Documentation Center.

Last reported at 2015-Sep-01 17:17 UTC. Time now 2015-Sep-01 18:12 UTC.
Position N 47°59' W 122°13'.

Length 20 m; draft 3 m.

Type: Towing. MMSI: 367324840.

Date/timePositionNaut miles runAvg speedWind from/ knotsBaromVisibWave heightAir tempDewpointWater temp
2015-Sep-01 17:17N 47°59' W 122°13'0 0.0
2015-Sep-01 16:27N 47°59' W 122°13'0 0.0
2015-Sep-01 15:27N 47°59' W 122°13'0 0.1
2015-Sep-01 14:33N 47°59' W 122°13'2 2.0
2015-Sep-01 13:33N 47°58' W 122°16'2 0.1
2015-Aug-31 23:18N 47°59' W 122°13'6 8.0
2015-Aug-31 22:31N 48°02' W 122°21'2 0.3
2015-Aug-31 16:33N 48°03' W 122°24'6 8.7
2015-Aug-31 15:55N 47°59' W 122°18'3 8.3
2015-Aug-31 15:33N 47°59' W 122°13'1 0.6
2015-Aug-31 14:34N 47°59' W 122°14'0 0.3
2015-Aug-31 13:32N 47°58' W 122°14'  
2015-Aug-27 14:33N 47°59' W 122°14'0 0.3
2015-Aug-27 13:33N 47°59' W 122°13'0 0.0
2015-Aug-26 14:33N 47°59' W 122°13'1 0.7
2015-Aug-26 13:33N 47°59' W 122°15'1 0.2
2015-Aug-26 08:24N 47°59' W 122°13'0 0.2
2015-Aug-26 07:33N 47°59' W 122°13'2 0.1
2015-Aug-25 14:33N 47°58' W 122°16'2 1.6
2015-Aug-25 13:33N 47°59' W 122°13'0 0.2
2015-Aug-25 12:09N 47°59' W 122°13'0 0.0
2015-Aug-25 10:08N 47°59' W 122°13'0 0.0
2015-Aug-25 07:05N 47°59' W 122°13'0 0.0
2015-Aug-25 05:18N 47°59' W 122°13'0 0.0
2015-Aug-25 03:23N 47°59' W 122°13'0 0.0
2015-Aug-25 02:23N 47°59' W 122°13'0 0.0
2015-Aug-25 01:28N 47°59' W 122°13'0 0.0
2015-Aug-25 00:29N 47°59' W 122°13'0 0.0
2015-Aug-24 22:26N 47°59' W 122°13'0 0.0
2015-Aug-24 21:03N 47°59' W 122°13'0 0.0
2015-Aug-24 20:24N 47°59' W 122°13'0 0.0
2015-Aug-24 14:33N 47°59' W 122°13'1 1.4
2015-Aug-24 13:33N 47°58' W 122°15'1 0.0
2015-Aug-23 14:33N 47°59' W 122°14'0 0.3
2015-Aug-23 13:34N 47°59' W 122°14'  

Dump ship's entire track history